Terminal Aerodrome Forecast
Issued by NWS

Home | Current Version | Previous Version | Text Only | Print | Product List | Glossary On
Versions: 1 2 3 4 5 6 7 8 9 10 11 12 13 14 15 16 17 18 19 20 21 22
000
FTUS43 KICT 270520
TAFCNU
TAF
KCNU 270520Z 2706/2806 06012KT P6SM -SHRA VCTS SCT020 BKN035CB
      TEMPO 2706/2707 VRB15G25KT 4SM TSRA BKN020CB
     FM270800 03007KT P6SM VCSH SCT009 OVC015
     FM271000 36009KT 5SM BR SCT005 OVC008
     FM271600 35011KT P6SM SCT009 BKN015
     FM272000 35010KT P6SM BKN030=

USA.gov is the U.S. government's official web portal to all federal, state and local government web resources and services.